Time;durP1;ratioP1;P1;durP2;ratioP2;P2;SDS_P1;SDS_P2;PMS_P1;PMS_P2;Temp;Humidity;BMP_temperature;BMP_pressure;BME280_temperature;BME280_humidity;BME280_pressure;Samples;Min_cycle;Max_cycle;Signal;HPM_P1;HPM_P2
2022/12/27 00:08:49;;;;;;;6.80;2.90;;;4.20;99.90;;;;;;2611884;54;20378;-73
2022/12/27 00:14:36;;;;;;;14.17;3.50;;;4.00;99.90;;;;;;2611777;54;20440;-73
2022/12/27 00:20:23;;;;;;;9.77;3.37;;;4.00;99.90;;;;;;2614399;54;20146;-74
2022/12/27 00:26:16;;;;;;;6.50;3.07;;;4.10;99.90;;;;;;2614160;54;20239;-73
2022/12/27 00:32:03;;;;;;;11.57;4.37;;;4.00;99.90;;;;;;2614168;54;20438;-74
2022/12/27 00:37:51;;;;;;;6.37;3.33;;;4.00;99.90;;;;;;2614021;54;20170;-72
2022/12/27 00:43:39;;;;;;;14.73;4.07;;;3.70;99.90;;;;;;2613462;54;20683;-72
2022/12/27 00:49:27;;;;;;;5.30;3.40;;;4.00;99.90;;;;;;2613134;54;20123;-72
2022/12/27 00:55:15;;;;;;;5.63;3.60;;;4.00;99.90;;;;;;2613236;54;20150;-72
2022/12/27 01:01:15;;;;;;;8.47;3.87;;;4.00;99.90;;;;;;2612000;54;21015;-72
2022/12/27 01:07:02;;;;;;;9.40;4.30;;;4.00;99.90;;;;;;2612864;54;20377;-73
2022/12/27 01:12:50;;;;;;;19.53;3.57;;;4.10;99.90;;;;;;2612121;54;20162;-71
2022/12/27 01:18:38;;;;;;;5.20;3.00;;;3.90;99.90;;;;;;2613432;54;20250;-72
2022/12/27 01:24:26;;;;;;;8.23;3.43;;;4.00;99.90;;;;;;2614621;54;20635;-72
2022/12/27 01:30:13;;;;;;;8.03;3.57;;;4.00;99.90;;;;;;2616120;46;20657;-72
2022/12/27 01:39:15;;;;;;;14.67;4.37;;;4.10;99.90;;;;;;2615586;54;20423;-73
2022/12/27 01:48:20;;;;;;;10.40;4.10;;;4.10;99.90;;;;;;2615502;54;20390;-74
2022/12/27 01:54:07;;;;;;;12.83;3.83;;;4.10;99.90;;;;;;2614671;54;20402;-72
2022/12/27 01:59:55;;;;;;;4.50;3.20;;;4.20;99.90;;;;;;2615059;54;20158;-71
2022/12/27 02:05:43;;;;;;;11.43;3.60;;;4.20;99.90;;;;;;2614997;39;20409;-71
2022/12/27 02:17:40;;;;;;;6.93;3.30;;;4.30;99.90;;;;;;2612841;54;20494;-72
2022/12/27 02:30:06;;;;;;;5.50;2.50;;;4.30;99.90;;;;;;2614266;54;20434;-72
2022/12/27 02:36:02;;;;;;;5.40;3.43;;;4.40;99.90;;;;;;2614662;39;20835;-73
2022/12/27 02:39:15;;;;;;;8.07;3.27;;;4.20;99.90;;;;;;2613734;46;20486;-73
2022/12/27 03:06:58;;;;;;;11.93;3.37;;;4.20;99.90;;;;;;2614703;54;20404;-72
2022/12/27 03:54:14;;;;;;;4.23;2.73;;;4.40;99.90;;;;;;2611723;54;20415;-77
2022/12/27 04:00:05;;;;;;;6.37;2.87;;;4.50;99.90;;;;;;2612710;54;20548;-76
2022/12/27 04:05:52;;;;;;;7.23;3.57;;;4.40;99.90;;;;;;2612025;39;20787;-76
2022/12/27 04:36:04;;;;;;;8.17;4.33;;;4.50;99.90;;;;;;2614186;54;20435;-77
2022/12/27 04:57:07;;;;;;;13.30;3.90;;;4.60;99.90;;;;;;2614638;54;20399;-76
2022/12/27 05:02:56;;;;;;;5.80;3.97;;;4.60;99.90;;;;;;2614452;54;20158;-77
2022/12/27 05:14:50;;;;;;;11.70;3.40;;;4.60;99.90;;;;;;2615337;54;20511;-75
2022/12/27 05:20:37;;;;;;;15.30;3.20;;;4.70;99.90;;;;;;2614217;54;20146;-77
2022/12/27 05:26:29;;;;;;;8.80;4.37;;;4.80;99.90;;;;;;2615510;54;20157;-75
2022/12/27 05:32:17;;;;;;;5.63;3.33;;;4.80;99.90;;;;;;2615375;39;20762;-76
2022/12/27 05:38:07;;;;;;;9.30;4.23;;;5.00;99.90;;;;;;2614798;54;20154;-76
2022/12/27 05:43:54;;;;;;;8.50;3.50;;;5.00;99.90;;;;;;2614999;46;20847;-76
2022/12/27 05:46:34;;;;;;;8.40;5.00;;;5.00;99.90;;;;;;2614862;54;20435;-75
2022/12/27 05:53:05;;;;;;;6.53;4.03;;;5.10;99.90;;;;;;2614489;54;20366;-76
2022/12/27 05:58:53;;;;;;;9.10;5.10;;;5.10;99.90;;;;;;2615100;54;20399;-73
2022/12/27 06:04:44;;;;;;;10.83;5.33;;;5.20;99.90;;;;;;2614841;54;20135;-75
2022/12/27 06:10:31;;;;;;;8.23;4.10;;;5.10;99.90;;;;;;2613997;54;20427;-75
2022/12/27 06:16:21;;;;;;;5.30;3.50;;;5.10;99.90;;;;;;2614515;54;20122;-76
2022/12/27 06:22:08;;;;;;;6.57;3.80;;;5.10;99.90;;;;;;2613841;54;20513;-78
2022/12/27 06:27:56;;;;;;;9.97;5.37;;;5.10;99.90;;;;;;2613618;54;20126;-76
2022/12/27 06:33:45;;;;;;;8.77;4.67;;;5.00;99.90;;;;;;2614743;54;20227;-76
2022/12/27 06:39:32;;;;;;;10.13;5.90;;;5.00;99.90;;;;;;2614480;54;20450;-75
2022/12/27 06:45:20;;;;;;;8.23;4.83;;;5.00;99.90;;;;;;2614937;54;20137;-75
2022/12/27 06:51:47;;;;;;;6.17;4.17;;;5.00;99.90;;;;;;2614237;54;20189;-76
2022/12/27 06:54:24;;;;;;;13.80;7.00;;;5.00;99.90;;;;;;2614930;54;20526;-75
2022/12/27 07:00:13;;;;;;;9.63;4.53;;;4.90;99.90;;;;;;2615128;54;20418;-73
2022/12/27 07:06:06;;;;;;;8.40;4.53;;;4.80;99.90;;;;;;2614272;46;20443;-76
2022/12/27 07:11:53;;;;;;;13.37;5.63;;;4.70;99.90;;;;;;2614686;54;20421;-74
2022/12/27 07:17:41;;;;;;;10.40;5.17;;;4.70;99.90;;;;;;2613839;54;20130;-76
2022/12/27 07:23:29;;;;;;;15.30;5.87;;;4.70;99.90;;;;;;2614760;54;20162;-75
2022/12/27 07:29:17;;;;;;;13.10;5.13;;;4.60;99.90;;;;;;2613324;54;20138;-74
2022/12/27 07:35:05;;;;;;;7.70;4.37;;;4.50;99.90;;;;;;2613479;54;20700;-75
2022/12/27 07:40:53;;;;;;;6.83;3.43;;;4.70;99.90;;;;;;2614436;54;20391;-75
2022/12/27 07:46:41;;;;;;;8.33;3.90;;;4.50;99.90;;;;;;2614831;54;20386;-76
2022/12/27 07:49:52;;;;;;;9.27;4.03;;;4.60;99.90;;;;;;2613258;54;20443;-74
2022/12/27 07:52:17;;;;;;;16.80;5.30;;;4.60;99.90;;;;;;2614842;54;20142;-75
2022/12/27 07:58:05;;;;;;;6.80;3.10;;;4.50;99.90;;;;;;2614731;54;20187;-74
2022/12/27 08:03:53;;;;;;;10.10;4.20;;;4.70;99.90;;;;;;2613988;54;20262;-75
2022/12/27 08:09:44;;;;;;;13.80;4.63;;;4.70;99.90;;;;;;2614017;54;20235;-77
2022/12/27 08:15:32;;;;;;;12.10;3.73;;;4.70;99.90;;;;;;2612956;54;20367;-75
2022/12/27 08:21:19;;;;;;;6.70;3.70;;;4.80;99.90;;;;;;2614245;39;20499;-75
2022/12/27 08:27:07;;;;;;;9.53;5.07;;;4.70;99.90;;;;;;2612957;54;20177;-75
2022/12/27 08:32:55;;;;;;;6.57;5.07;;;5.00;99.90;;;;;;2613925;54;20178;-75
2022/12/27 08:38:42;;;;;;;13.13;5.30;;;4.90;99.90;;;;;;2614981;39;20553;-76
2022/12/27 08:44:30;;;;;;;13.90;5.40;;;5.10;99.90;;;;;;2613274;54;20639;-75
2022/12/27 08:54:23;;;;;;;7.60;4.57;;;5.50;99.90;;;;;;2612416;54;20366;-75
2022/12/27 09:00:12;;;;;;;6.83;3.30;;;5.60;99.90;;;;;;2611258;54;20532;-76
2022/12/27 09:12:44;;;;;;;6.80;3.50;;;6.70;99.90;;;;;;2613859;54;20523;-76
2022/12/27 09:18:32;;;;;;;5.80;4.23;;;6.50;99.90;;;;;;2614212;54;20383;-79
2022/12/27 09:24:19;;;;;;;6.17;4.27;;;6.90;99.90;;;;;;2613782;54;20139;-78
2022/12/27 09:30:10;;;;;;;5.37;2.80;;;7.10;99.90;;;;;;2612673;54;20134;-75
2022/12/27 09:46:54;;;;;;;6.30;3.30;;;8.60;99.90;;;;;;2611671;54;20439;-76
2022/12/27 09:49:55;;;;;;;12.73;3.80;;;9.30;99.90;;;;;;2610829;39;24143;-77
2022/12/27 09:52:33;;;;;;;7.60;3.83;;;9.50;99.90;;;;;;2611811;54;20404;-73
2022/12/27 10:04:49;;;;;;;6.70;3.83;;;8.90;99.90;;;;;;2613111;54;20407;-76
2022/12/27 10:23:53;;;;;;;6.70;3.60;;;8.30;99.90;;;;;;2614034;54;20412;-76
2022/12/27 10:29:41;;;;;;;11.60;4.53;;;8.40;99.90;;;;;;2613882;54;20414;-76
2022/12/27 10:35:29;;;;;;;8.20;3.63;;;9.70;99.90;;;;;;2613459;54;20419;-77
2022/12/27 10:44:37;;;;;;;7.03;4.50;;;10.40;98.70;;;;;;2614086;39;20792;-76
2022/12/27 10:54:08;;;;;;;11.23;4.97;;;10.50;97.20;;;;;;2610796;54;20491;-74
2022/12/27 11:00:17;;;;;;;7.83;3.83;;;10.80;91.10;;;;;;2614249;54;20415;-75
2022/12/27 11:12:22;;;;;;;5.33;4.20;;;11.70;69.20;;;;;;2613620;54;20407;-75
2022/12/27 11:24:25;;;;;;;7.83;4.37;;;11.60;74.90;;;;;;2613338;54;20934;-74
2022/12/27 11:30:22;;;;;;;10.40;4.63;;;10.70;80.90;;;;;;2613958;39;20535;-76
2022/12/27 11:36:11;;;;;;;7.07;4.67;;;10.60;76.20;;;;;;2613008;54;20395;-75
2022/12/27 11:41:59;;;;;;;5.70;4.33;;;11.50;77.30;;;;;;2612545;54;20260;-75
2022/12/27 11:47:54;;;;;;;8.90;5.40;;;11.90;71.90;;;;;;2612921;54;20543;-76
2022/12/27 11:53:41;;;;;;;5.20;4.70;;;11.70;65.20;;;;;;2614278;54;20404;-75
2022/12/27 12:23:30;;;;;;;9.33;4.27;;;9.60;99.90;;;;;;2613288;54;20386;-75
2022/12/27 12:29:38;;;;;;;6.00;4.23;;;8.50;99.90;;;;;;2613795;54;20387;-76
2022/12/27 12:35:53;;;;;;;5.87;3.47;;;8.30;99.90;;;;;;2612832;54;20960;-76
2022/12/27 13:11:34;;;;;;;7.73;3.83;;;7.80;99.90;;;;;;2612503;39;20887;-76
2022/12/27 13:23:45;;;;;;;12.23;3.97;;;7.70;99.90;;;;;;2614612;54;20471;-77
2022/12/27 13:35:57;;;;;;;3.80;3.13;;;7.50;99.90;;;;;;2615712;39;20490;-75
2022/12/27 13:59:23;;;;;;;13.03;4.00;;;7.50;99.90;;;;;;2615907;54;20455;-77
2022/12/27 14:25:05;;;;;;;7.57;4.43;;;7.60;99.90;;;;;;2612237;54;20415;-76
2022/12/27 14:31:04;;;;;;;11.23;5.17;;;7.40;99.90;;;;;;2613926;54;21458;-74
2022/12/27 14:44:09;;;;;;;6.87;3.83;;;7.40;99.90;;;;;;2613812;54;20988;-76
2022/12/27 15:06:46;;;;;;;5.93;3.63;;;7.30;99.90;;;;;;2613287;54;20410;-76
2022/12/27 15:19:28;;;;;;;13.13;5.23;;;7.20;99.90;;;;;;2612862;54;20386;-77
2022/12/27 15:29:57;;;;;;;12.63;4.37;;;7.00;99.90;;;;;;2613516;54;20997;-77
2022/12/27 15:35:53;;;;;;;13.33;6.50;;;7.10;99.90;;;;;;2613527;54;20443;-76
2022/12/27 15:42:04;;;;;;;14.20;12.80;;;7.00;99.90;;;;;;2613292;54;20407;-76
2022/12/27 16:14:29;;;;;;;12.30;6.57;;;7.20;99.90;;;;;;2615374;54;20386;-78
2022/12/27 16:20:19;;;;;;;6.33;4.87;;;7.30;99.90;;;;;;2615030;54;20412;-75
2022/12/27 16:32:30;;;;;;;16.30;11.20;;;7.50;99.90;;;;;;2611468;54;20403;-78
2022/12/27 16:38:21;;;;;;;7.77;4.03;;;7.50;99.90;;;;;;2613932;39;20532;-76
2022/12/27 16:51:00;;;;;;;7.53;3.33;;;7.50;99.90;;;;;;2614390;54;20523;-76
2022/12/27 16:56:48;;;;;;;14.63;5.13;;;7.60;99.90;;;;;;2613338;46;20462;-76
2022/12/27 17:02:36;;;;;;;4.40;3.50;;;7.60;99.90;;;;;;2612664;54;20379;-75
2022/12/27 17:08:29;;;;;;;7.40;2.77;;;7.60;99.90;;;;;;2614089;54;20414;-76
2022/12/27 17:14:24;;;;;;;6.43;3.43;;;7.50;99.90;;;;;;2614605;54;20443;-77
2022/12/27 17:20:17;;;;;;;6.27;3.70;;;7.50;99.90;;;;;;2615197;46;20911;-78
2022/12/27 17:39:13;;;;;;;7.80;4.07;;;7.40;99.90;;;;;;2615521;39;20756;-76
2022/12/27 17:57:52;;;;;;;8.10;4.20;;;7.20;99.90;;;;;;2614950;54;20508;-75
2022/12/27 18:03:21;;;;;;;9.80;4.83;;;7.00;99.90;;;;;;2614520;54;20402;-76
2022/12/27 18:15:45;;;;;;;11.10;6.30;;;6.60;99.90;;;;;;2612432;54;20417;-76
2022/12/27 18:21:32;;;;;;;9.30;6.27;;;6.70;99.90;;;;;;2612620;54;20396;-75
2022/12/27 18:27:23;;;;;;;9.03;4.83;;;6.40;99.90;;;;;;2612944;46;20199;-76
2022/12/27 18:33:14;;;;;;;8.73;5.93;;;6.50;99.90;;;;;;2612518;54;20405;-77
2022/12/27 18:35:44;;;;;;;6.43;3.80;;;6.40;99.90;;;;;;2612840;46;20441;-78
2022/12/27 18:44:31;;;;;;;5.00;3.50;;;6.40;99.90;;;;;;2611737;54;20435;-78
2022/12/27 18:50:24;;;;;;;8.13;3.40;;;6.30;99.90;;;;;;2613650;54;20355;-75
2022/12/27 18:59:35;;;;;;;6.20;4.13;;;6.20;99.90;;;;;;2614895;54;20415;-78
2022/12/27 19:05:26;;;;;;;10.00;5.67;;;6.10;99.90;;;;;;2614971;46;20402;-75
2022/12/27 19:11:22;;;;;;;4.80;3.60;;;6.10;99.90;;;;;;2614936;54;20434;-76
2022/12/27 19:17:22;;;;;;;5.43;3.67;;;6.10;99.90;;;;;;2614484;54;20520;-80
2022/12/27 19:29:54;;;;;;;10.13;4.07;;;6.00;99.90;;;;;;2613901;54;20430;-79
2022/12/27 19:35:42;;;;;;;13.27;4.90;;;5.80;99.90;;;;;;2612567;54;20135;-78
2022/12/27 19:41:30;;;;;;;4.93;3.90;;;5.90;99.90;;;;;;2613294;54;20398;-77
2022/12/27 19:47:18;;;;;;;9.47;4.03;;;5.90;99.90;;;;;;2613435;54;20587;-77
2022/12/27 19:53:06;;;;;;;8.83;4.13;;;5.80;99.90;;;;;;2612498;54;20162;-76
2022/12/27 19:58:53;;;;;;;8.30;4.80;;;5.70;99.90;;;;;;2613814;54;20153;-74
2022/12/27 20:04:41;;;;;;;6.80;4.17;;;5.80;99.90;;;;;;2614538;54;20234;-77
2022/12/27 20:10:29;;;;;;;7.40;4.60;;;5.70;99.90;;;;;;2613292;54;20243;-77
2022/12/27 20:16:18;;;;;;;5.07;3.67;;;5.80;99.90;;;;;;2614496;39;20562;-79
2022/12/27 20:22:05;;;;;;;4.83;3.33;;;5.70;99.90;;;;;;2613980;54;20382;-78
2022/12/27 20:27:53;;;;;;;4.60;3.40;;;5.60;99.90;;;;;;2614106;54;20145;-76
2022/12/27 20:33:41;;;;;;;5.53;4.20;;;5.50;99.90;;;;;;2614029;54;20150;-77
2022/12/27 20:39:29;;;;;;;8.40;3.80;;;5.70;99.90;;;;;;2613245;54;20415;-75
2022/12/27 20:45:17;;;;;;;5.80;4.30;;;5.50;99.90;;;;;;2613102;54;20753;-78
2022/12/27 20:51:10;;;;;;;6.67;3.20;;;5.60;99.90;;;;;;2613320;54;20584;-76
2022/12/27 21:00:19;;;;;;;5.87;4.00;;;5.60;99.90;;;;;;2613853;54;20374;-75
2022/12/27 21:06:13;;;;;;;10.90;4.43;;;5.60;99.90;;;;;;2611126;54;20134;-75
2022/12/27 21:12:00;;;;;;;7.53;4.00;;;5.60;99.90;;;;;;2614514;54;20378;-76
2022/12/27 21:17:48;;;;;;;10.67;5.40;;;5.60;99.90;;;;;;2613976;54;20162;-74
2022/12/27 21:23:36;;;;;;;7.00;4.73;;;5.60;99.90;;;;;;2614376;54;20130;-76
2022/12/27 21:29:24;;;;;;;10.30;4.33;;;5.60;99.90;;;;;;2612446;54;20415;-76
2022/12/27 21:35:12;;;;;;;7.50;4.20;;;5.70;99.90;;;;;;2613632;54;20427;-77
2022/12/27 21:47:40;;;;;;;7.43;4.27;;;5.70;99.90;;;;;;2613776;54;20383;-79
2022/12/27 21:53:28;;;;;;;9.13;4.23;;;5.90;99.90;;;;;;2614117;54;20413;-77
2022/12/27 21:59:15;;;;;;;4.13;3.73;;;5.80;99.90;;;;;;2614785;54;20161;-78
2022/12/27 22:05:04;;;;;;;5.97;3.90;;;5.80;99.90;;;;;;2614301;54;20118;-75
2022/12/27 22:10:55;;;;;;;6.80;4.27;;;5.90;99.90;;;;;;2615022;54;20475;-77
2022/12/27 22:16:43;;;;;;;5.03;3.50;;;5.90;99.90;;;;;;2612877;54;20392;-76
2022/12/27 22:22:32;;;;;;;6.23;3.33;;;6.00;99.90;;;;;;2615473;39;20677;-77
2022/12/27 22:28:20;;;;;;;5.73;3.73;;;5.90;99.90;;;;;;2614036;54;20387;-76
2022/12/27 22:34:08;;;;;;;5.27;3.43;;;5.90;99.90;;;;;;2614012;54;20409;-74
2022/12/27 22:39:56;;;;;;;10.47;4.40;;;5.90;99.90;;;;;;2615036;54;20165;-75
2022/12/27 22:45:44;;;;;;;4.57;3.70;;;5.90;99.90;;;;;;2615236;39;20521;-76
2022/12/27 22:51:34;;;;;;;4.53;2.50;;;5.90;99.90;;;;;;2615124;54;20174;-76
2022/12/27 23:00:44;;;;;;;3.90;3.40;;;6.10;99.90;;;;;;2613481;54;20467;-76
2022/12/27 23:06:34;;;;;;;5.40;3.63;;;6.10;99.90;;;;;;2614188;54;20134;-76
2022/12/27 23:12:23;;;;;;;7.57;4.10;;;6.10;99.90;;;;;;2615429;54;20411;-76
2022/12/27 23:15:26;;;;;;;11.77;4.20;;;6.10;99.90;;;;;;2614393;54;20426;-75
2022/12/27 23:17:52;;;;;;;5.27;3.67;;;6.20;99.90;;;;;;2611629;54;20410;-74
2022/12/27 23:23:42;;;;;;;5.33;3.33;;;6.10;99.90;;;;;;2613721;54;20158;-77
2022/12/27 23:29:30;;;;;;;12.20;3.30;;;6.10;99.90;;;;;;2613663;54;20418;-77
2022/12/27 23:35:17;;;;;;;4.27;3.60;;;6.20;99.90;;;;;;2613635;54;20138;-75
2022/12/27 23:41:07;;;;;;;5.13;4.73;;;6.40;99.90;;;;;;2614582;54;20266;-76
2022/12/27 23:46:54;;;;;;;3.97;3.50;;;6.40;99.90;;;;;;2614503;54;20431;-75
2022/12/27 23:52:43;;;;;;;4.97;3.60;;;6.50;99.90;;;;;;2613310;54;20138;-76
2022/12/27 23:58:31;;;;;;;4.93;3.00;;;6.50;99.90;;;;;;2614275;54;20462;-75
